createdAt,value
2019-05-15T03:03:09.521Z,75.80
2019-05-15T03:05:41.035Z,75.90
2019-05-15T03:08:10.530Z,76.40
2019-05-15T03:10:40.914Z,76.60
2019-05-15T03:13:10.491Z,76.90
2019-05-15T03:15:40.725Z,76.70
2019-05-15T03:18:10.365Z,76.80
2019-05-15T03:20:40.276Z,77.20
2019-05-15T03:23:10.155Z,77.40
2019-05-15T03:25:40.935Z,77.60
2019-05-15T03:28:11.032Z,78.40
2019-05-15T03:31:13.183Z,77.80
2019-05-15T03:33:18.946Z,77.90
2019-05-15T03:35:44.148Z,78.10
2019-05-15T03:38:13.372Z,77.50
2019-05-15T03:40:43.234Z,78.10
2019-05-15T03:43:12.502Z,78.10
2019-05-15T03:45:41.764Z,78.70
2019-05-15T03:48:11.097Z,78.40
2019-05-15T03:50:40.771Z,78.20
2019-05-15T03:53:11.083Z,78.10
2019-05-15T03:55:40.965Z,78.30
2019-05-15T03:58:10.633Z,78.30
2019-05-15T04:00:40.248Z,78.20
2019-05-15T04:03:10.815Z,78.80
2019-05-15T04:05:41.625Z,78.80
2019-05-15T04:08:11.505Z,77.90
2019-05-15T04:10:40.962Z,78.20
2019-05-15T04:13:10.223Z,78.20
2019-05-15T04:15:40.478Z,78.20
2019-05-15T04:18:09.970Z,78.20
2019-05-15T04:20:40.570Z,78.10
2019-05-15T04:23:10.958Z,78.00
2019-05-15T04:25:41.080Z,77.60
2019-05-15T04:28:12.213Z,77.30
2019-05-15T04:30:41.495Z,77.30
2019-05-15T04:33:11.012Z,76.80
2019-05-15T04:35:40.645Z,76.30
2019-05-15T04:38:10.122Z,76.50
2019-05-15T04:40:40.128Z,75.80
2019-05-15T04:43:10.771Z,75.30
2019-05-15T04:45:53.195Z,74.80
2019-05-15T04:48:22.520Z,74.60
2019-05-15T04:50:51.784Z,74.30
2019-05-15T04:53:21.056Z,73.60
2019-05-15T04:55:50.321Z,73.90
2019-05-15T04:58:21.370Z,74.20
2019-05-15T05:00:52.520Z,74.00
2019-05-15T05:03:21.774Z,74.00
2019-05-15T05:05:51.384Z,73.60
2019-05-15T05:08:21.011Z,73.00
2019-05-15T05:10:50.742Z,72.50
2019-05-15T05:13:20.483Z,71.40
2019-05-15T05:15:50.563Z,70.60
2019-05-15T05:18:20.316Z,70.60
2019-05-15T05:20:50.670Z,70.20
2019-05-15T05:23:19.937Z,69.50
2019-05-15T05:25:49.605Z,68.50
2019-05-15T05:28:19.211Z,67.90
2019-05-15T05:30:48.914Z,67.70
2019-05-15T05:33:18.667Z,67.70
2019-05-15T05:35:48.853Z,67.10
2019-05-15T05:38:19.035Z,66.30
2019-05-15T05:40:50.001Z,66.40
2019-05-15T05:43:19.902Z,66.20
2019-05-15T05:45:49.629Z,64.50
2019-05-15T05:48:19.329Z,64.10
2019-05-15T05:50:50.020Z,63.10
2019-05-15T05:53:21.294Z,63.50
2019-05-15T05:55:53.225Z,63.10
2019-05-15T05:58:21.901Z,62.60
2019-05-15T06:00:51.394Z,61.90
2019-05-15T06:03:20.895Z,62.10
2019-05-15T06:05:50.148Z,62.50
2019-05-15T06:08:20.100Z,62.60
2019-05-15T06:10:50.022Z,61.70
2019-05-15T06:13:19.480Z,60.80
2019-05-15T06:15:49.234Z,59.50
2019-05-15T06:18:19.733Z,58.80
2019-05-15T06:20:50.399Z,59.40
2019-05-15T06:23:25.581Z,58.50
2019-05-15T06:25:50.859Z,57.70
2019-05-15T06:28:20.491Z,58.10
2019-05-15T06:30:51.194Z,58.40
2019-05-15T06:33:20.450Z,58.50
2019-05-15T06:35:49.715Z,56.80
2019-05-15T06:38:19.619Z,55.80
2019-05-15T06:40:50.358Z,55.10
2019-05-15T06:43:19.861Z,55.30
2019-05-15T06:45:49.407Z,55.00
2019-05-15T06:48:19.803Z,55.60
2019-05-15T06:50:49.513Z,55.20
2019-05-15T06:53:19.618Z,52.80
2019-05-15T06:55:49.219Z,52.90
2019-05-15T06:58:19.371Z,52.60
2019-05-15T07:00:49.894Z,52.00
2019-05-15T07:03:25.230Z,51.90
2019-05-15T07:05:51.675Z,52.10
2019-05-15T07:08:20.958Z,51.80
2019-05-15T07:10:50.262Z,50.60
2019-05-15T07:13:19.532Z,49.60
2019-05-15T07:15:49.996Z,49.90
2019-05-15T07:18:20.045Z,49.20
2019-05-15T07:20:49.549Z,49.30
2019-05-15T07:23:19.240Z,49.90
2019-05-15T07:25:50.413Z,49.60
2019-05-15T07:28:19.716Z,48.60
2019-05-15T07:30:49.682Z,48.50
2019-05-15T07:33:35.408Z,48.60
2019-05-15T07:35:50.211Z,48.10
2019-05-15T07:38:19.529Z,47.40
2019-05-15T07:40:57.090Z,48.20
2019-05-15T07:43:19.780Z,47.50
2019-05-15T07:45:54.323Z,46.60
2019-05-15T07:48:20.011Z,47.40
2019-05-15T07:50:49.994Z,47.00
2019-05-15T07:53:20.164Z,46.50
2019-05-15T07:55:50.872Z,46.00
2019-05-15T07:58:22.098Z,46.20
2019-05-15T08:00:51.649Z,46.80
2019-05-15T08:03:21.409Z,46.90
2019-05-15T08:05:59.086Z,45.70
2019-05-15T08:08:22.758Z,43.90
2019-05-15T08:10:52.028Z,42.90
2019-05-15T08:13:21.294Z,42.90
2019-05-15T08:15:50.554Z,42.90
2019-05-15T08:18:19.820Z,43.20
2019-05-15T08:20:49.404Z,44.10
2019-05-15T08:23:19.681Z,44.10
2019-05-15T08:25:49.004Z,43.80
2019-05-15T08:28:19.047Z,44.40
2019-05-15T08:30:49.594Z,42.80
2019-05-15T08:33:19.260Z,41.90
2019-05-15T08:35:51.657Z,42.10
2019-05-15T08:38:19.523Z,42.80
2019-05-15T08:40:49.179Z,43.70
2019-05-15T08:43:19.002Z,45.10
2019-05-15T08:45:49.445Z,41.80
2019-05-15T08:48:20.578Z,40.50
2019-05-15T08:50:50.087Z,40.40
2019-05-15T08:53:19.763Z,42.00
2019-05-15T08:55:49.584Z,40.60
2019-05-15T08:58:20.269Z,40.60
2019-05-15T09:00:52.474Z,41.70
2019-05-15T09:03:20.859Z,40.40
2019-05-15T09:05:50.399Z,40.30
2019-05-15T09:08:19.995Z,40.20
2019-05-15T09:10:50.225Z,41.40
2019-05-15T09:13:20.827Z,40.30
2019-05-15T09:15:50.277Z,40.30
2019-05-15T09:18:20.463Z,41.60
2019-05-15T09:20:50.087Z,41.00
2019-05-15T09:23:20.029Z,40.90
2019-05-15T09:25:49.833Z,38.40
2019-05-15T09:28:19.619Z,38.50
2019-05-15T09:30:49.211Z,38.40
2019-05-15T09:33:20.174Z,39.30
2019-05-15T09:35:49.451Z,39.60
2019-05-15T09:38:19.031Z,39.90
2019-05-15T09:40:50.147Z,40.20
2019-05-15T09:43:19.435Z,39.40
2019-05-15T09:45:49.496Z,39.80
2019-05-15T09:48:20.341Z,39.70
2019-05-15T09:50:49.709Z,38.90
2019-05-15T09:53:19.479Z,39.50
2019-05-15T09:55:49.786Z,39.20
2019-05-15T09:58:20.839Z,40.20
2019-05-15T10:00:52.779Z,39.10
2019-05-15T10:03:22.819Z,38.10
2019-05-15T10:05:52.076Z,37.80
2019-05-15T10:08:21.785Z,38.30
2019-05-15T10:10:51.195Z,36.40
2019-05-15T10:13:20.464Z,37.40
2019-05-15T10:15:51.329Z,36.20
2019-05-15T10:18:20.664Z,37.00
2019-05-15T10:20:51.288Z,37.40
2019-05-15T10:23:20.628Z,37.60
2019-05-15T10:25:50.964Z,38.30
2019-05-15T10:28:20.238Z,38.60
2019-05-15T10:30:50.113Z,38.00
2019-05-15T10:33:20.454Z,37.20
2019-05-15T10:35:49.893Z,37.70
2019-05-15T10:38:19.592Z,37.90
2019-05-15T10:41:03.856Z,37.50
2019-05-15T10:43:20.951Z,36.80
2019-05-15T10:45:51.521Z,37.10
2019-05-15T10:48:21.448Z,37.40
2019-05-15T10:50:50.718Z,37.70
2019-05-15T10:53:20.149Z,37.20
2019-05-15T10:55:49.750Z,35.30
2019-05-15T10:58:22.274Z,36.60
2019-05-15T11:00:51.101Z,36.40
2019-05-15T11:03:20.439Z,36.40
2019-05-15T11:05:49.703Z,35.00
2019-05-15T11:08:19.232Z,35.30
2019-05-15T11:10:49.616Z,35.00
2019-05-15T11:13:19.166Z,36.70
2019-05-15T11:15:49.328Z,37.00
2019-05-15T11:18:18.818Z,37.60
2019-05-15T11:20:48.921Z,37.10
2019-05-15T11:23:19.870Z,36.10
2019-05-15T11:25:49.704Z,37.20
2019-05-15T11:28:19.031Z,37.00
2019-05-15T11:30:49.146Z,36.50
2019-05-15T11:33:19.056Z,35.90
2019-05-15T11:36:01.239Z,35.60
2019-05-15T11:38:19.740Z,35.40
2019-05-15T11:40:49.095Z,33.80
2019-05-15T11:43:19.786Z,36.20
2019-05-15T11:45:49.388Z,34.00
2019-05-15T11:48:20.685Z,33.60
2019-05-15T11:50:50.691Z,33.80
2019-05-15T11:53:20.101Z,34.30
2019-05-15T11:55:50.447Z,33.20
2019-05-15T11:58:20.039Z,34.90
2019-05-15T12:00:49.463Z,34.00
2019-05-15T12:03:19.270Z,34.10
2019-05-15T12:05:48.721Z,34.10
2019-05-15T12:08:18.449Z,33.10
2019-05-15T12:10:48.131Z,35.20
2019-05-15T12:13:18.878Z,35.10
2019-05-15T12:15:48.763Z,32.70
2019-05-15T12:18:18.666Z,32.80
2019-05-15T12:20:48.621Z,33.40
2019-05-15T12:23:19.135Z,32.50
2019-05-15T12:28:19.359Z,31.70
2019-05-15T12:30:49.303Z,31.80
2019-05-15T12:33:18.783Z,31.30
2019-05-15T12:35:50.894Z,32.60
2019-05-15T12:38:19.337Z,31.50
2019-05-15T12:39:23.606Z,33.40
2019-05-15T13:00:57.883Z,29.50
2019-05-15T13:03:28.987Z,30.20
2019-05-15T13:05:58.487Z,29.90
2019-05-15T13:08:29.093Z,30.00
2019-05-15T13:10:58.880Z,29.40
2019-05-15T13:13:28.475Z,30.70
2019-05-15T13:15:59.049Z,29.40
2019-05-15T13:18:29.403Z,29.40
2019-05-15T13:20:59.410Z,28.40
2019-05-15T13:23:29.131Z,27.90
2019-05-15T13:25:59.205Z,28.50
2019-05-15T13:28:29.249Z,28.40
2019-05-15T13:30:59.527Z,28.00
2019-05-15T13:33:29.488Z,27.60
2019-05-15T13:35:58.761Z,27.70
2019-05-15T13:38:28.809Z,28.30
2019-05-15T13:40:58.909Z,27.50
2019-05-15T13:43:29.033Z,26.60
2019-05-15T13:45:59.723Z,26.30
2019-05-15T13:48:29.987Z,26.10
2019-05-15T13:50:59.408Z,26.20
2019-05-15T13:53:28.798Z,25.70
2019-05-15T13:55:58.075Z,26.30
2019-05-15T13:58:28.261Z,25.00
2019-05-15T14:00:58.871Z,24.40
2019-05-15T14:03:28.655Z,25.10
2019-05-15T14:05:58.637Z,23.40
2019-05-15T14:08:28.731Z,24.20
2019-05-15T14:10:58.706Z,23.20
2019-05-15T14:13:28.679Z,23.60
2019-05-15T14:15:58.460Z,23.60
2019-05-15T14:18:28.643Z,22.90
2019-05-15T14:20:58.545Z,22.40
2019-05-15T14:23:29.522Z,22.00
2019-05-15T14:26:13.052Z,20.80
2019-05-15T14:28:30.319Z,21.20
2019-05-15T14:30:59.591Z,20.20
2019-05-15T14:33:29.446Z,20.40
2019-05-15T14:35:59.783Z,19.80
2019-05-15T14:38:29.236Z,21.20
2019-05-15T14:40:59.227Z,21.20
2019-05-15T14:43:29.771Z,22.20
2019-05-15T14:45:59.479Z,22.10
2019-05-15T14:48:28.747Z,22.80
2019-05-15T14:50:58.512Z,22.30
2019-05-15T14:53:29.439Z,22.20
2019-05-15T14:56:00.439Z,21.80
2019-05-15T14:58:30.174Z,22.80
2019-05-15T15:01:03.507Z,22.20
2019-05-15T15:03:30.733Z,22.60
2019-05-15T15:06:00.347Z,22.90
2019-05-15T15:08:32.233Z,23.50
2019-05-15T15:11:00.611Z,24.30
2019-05-15T15:13:30.280Z,24.10
2019-05-15T15:15:59.545Z,24.10
2019-05-15T15:18:29.880Z,23.80
2019-05-15T15:20:59.154Z,24.60
2019-05-15T15:23:28.594Z,25.60
2019-05-15T15:25:58.242Z,26.40
2019-05-15T15:28:29.415Z,26.10
2019-05-15T15:30:58.856Z,25.50
2019-05-15T15:33:28.811Z,26.00
2019-05-15T15:35:58.371Z,25.30
2019-05-15T15:38:40.533Z,25.30
2019-05-15T15:41:00.358Z,24.90
2019-05-15T15:43:29.563Z,25.00
2019-05-15T15:45:58.827Z,25.80
2019-05-15T15:48:28.712Z,26.50
2019-05-15T15:50:58.816Z,27.00
2019-05-15T15:53:29.355Z,27.80
2019-05-15T15:55:58.971Z,26.70
2019-05-15T15:58:28.923Z,27.20
2019-05-15T16:00:58.919Z,27.20
2019-05-15T16:03:28.761Z,28.60
2019-05-15T16:05:58.135Z,28.30
2019-05-15T16:08:28.691Z,27.90
2019-05-15T16:10:58.968Z,28.40
2019-05-15T16:13:29.291Z,26.80
2019-05-15T16:15:58.810Z,26.90
2019-05-15T16:18:29.444Z,26.60
2019-05-15T16:20:58.705Z,27.20
2019-05-15T16:23:28.365Z,27.70
2019-05-15T16:26:00.913Z,27.60
2019-05-15T16:28:29.168Z,28.00
2019-05-15T16:30:59.426Z,27.90
2019-05-15T16:33:28.687Z,27.50
2019-05-15T16:35:58.722Z,27.50
2019-05-15T16:38:28.504Z,28.40
2019-05-15T16:40:58.590Z,28.00
2019-05-15T16:43:28.688Z,27.30
2019-05-15T16:45:58.863Z,27.00
2019-05-15T16:48:29.376Z,27.40
2019-05-15T16:50:58.890Z,27.80
2019-05-15T16:53:29.065Z,28.10
2019-05-15T16:55:58.769Z,27.80
2019-05-15T16:58:29.762Z,28.50
2019-05-15T17:00:59.212Z,28.40
2019-05-15T17:03:29.033Z,28.70
2019-05-15T17:05:58.901Z,29.60
2019-05-15T17:08:29.517Z,29.30
2019-05-15T17:10:59.427Z,29.90
2019-05-15T17:13:28.976Z,29.70
2019-05-15T17:15:58.554Z,29.10
2019-05-15T17:18:28.353Z,29.60
2019-05-15T17:20:59.098Z,30.00
2019-05-15T17:23:28.609Z,30.30
2019-05-15T17:25:58.262Z,29.90
2019-05-15T17:28:29.150Z,30.20
2019-05-15T17:30:58.547Z,30.80
2019-05-15T17:33:28.853Z,31.50
2019-05-15T17:35:58.708Z,31.40
2019-05-15T17:38:28.662Z,31.40
2019-05-15T17:40:58.619Z,32.30
2019-05-15T17:43:28.724Z,31.80
2019-05-15T17:45:58.563Z,32.10
2019-05-15T17:48:29.178Z,32.60
2019-05-15T17:50:59.658Z,32.30
2019-05-15T17:53:29.018Z,33.00
2019-05-15T17:55:59.042Z,33.00
2019-05-15T17:58:28.834Z,33.20
2019-05-15T18:00:59.469Z,33.40
2019-05-15T18:03:29.123Z,34.00
2019-05-15T18:05:59.090Z,34.20
2019-05-15T18:08:28.763Z,34.40
2019-05-15T18:10:58.840Z,35.00
2019-05-15T18:13:28.719Z,35.40
2019-05-15T18:16:02.782Z,35.50
2019-05-15T18:18:29.240Z,36.30
2019-05-15T18:20:59.571Z,36.70
2019-05-15T18:23:28.911Z,37.20
2019-05-15T18:25:58.661Z,37.30
2019-05-15T18:28:28.252Z,37.60
2019-05-15T18:30:58.779Z,37.80
2019-05-15T18:33:28.268Z,38.00
2019-05-15T18:35:58.602Z,38.40
2019-05-15T18:38:29.554Z,38.60
2019-05-15T18:40:59.074Z,39.10
2019-05-15T18:43:28.550Z,39.20
2019-05-15T18:45:58.594Z,39.60
2019-05-15T18:48:28.869Z,40.00
2019-05-15T18:50:58.907Z,40.00
2019-05-15T18:53:28.541Z,40.30
2019-05-15T18:55:58.467Z,40.40
2019-05-15T18:58:27.835Z,40.30
2019-05-15T19:00:58.359Z,40.90
2019-05-15T19:03:28.020Z,41.20
2019-05-15T19:05:58.627Z,40.90
2019-05-15T19:08:28.363Z,41.50
2019-05-15T19:10:58.456Z,41.70
2019-05-15T19:13:28.439Z,40.80
2019-05-15T19:15:58.724Z,41.80
2019-05-15T19:18:28.322Z,41.90
2019-05-15T19:20:58.631Z,41.80
2019-05-15T19:23:28.142Z,41.90
2019-05-15T19:25:58.054Z,42.30
2019-05-15T19:28:28.538Z,42.30
2019-05-15T19:30:58.719Z,42.60
2019-05-15T19:33:36.992Z,42.80
2019-05-15T19:36:02.065Z,42.90
2019-05-15T19:38:30.140Z,43.00
2019-05-15T19:41:03.097Z,43.00
2019-05-15T19:43:30.460Z,43.40
2019-05-15T19:45:59.723Z,43.60
2019-05-15T19:48:28.983Z,43.50
2019-05-15T19:50:58.364Z,43.50
2019-05-15T19:53:28.352Z,43.80
2019-05-15T19:55:58.046Z,44.10
2019-05-15T19:58:28.658Z,44.30
2019-05-15T20:00:58.080Z,44.10
2019-05-15T20:03:28.364Z,43.90
2019-05-15T20:06:01.530Z,44.40
2019-05-15T20:08:29.894Z,44.90
2019-05-15T20:10:59.790Z,44.70
2019-05-15T20:13:29.191Z,44.50
2019-05-15T20:15:58.599Z,45.20
2019-05-15T20:18:28.016Z,45.50
2019-05-15T20:20:58.498Z,45.60
2019-05-15T20:23:28.922Z,45.50
2019-05-15T20:25:58.318Z,45.50
2019-05-15T20:28:28.587Z,45.20
2019-05-15T20:30:58.738Z,45.20
2019-05-15T20:33:28.660Z,45.50
2019-05-15T20:35:58.878Z,45.80
2019-05-15T20:38:28.717Z,46.00
2019-05-15T20:40:59.867Z,46.30
2019-05-15T20:43:29.191Z,46.10
2019-05-15T20:45:58.727Z,46.20
2019-05-15T20:48:28.938Z,46.10
2019-05-15T20:50:58.992Z,46.40
2019-05-15T20:53:29.542Z,46.10
2019-05-15T20:55:59.143Z,47.30
2019-05-15T20:58:28.402Z,47.50
2019-05-15T21:00:59.082Z,46.90
2019-05-15T21:03:28.619Z,47.90
2019-05-15T21:06:00.755Z,47.70
2019-05-15T21:08:28.987Z,47.50
2019-05-15T21:10:59.062Z,47.00
2019-05-15T21:13:29.819Z,46.60
2019-05-15T21:15:59.384Z,47.20
2019-05-15T21:18:29.094Z,47.50
2019-05-15T21:20:58.815Z,47.80
2019-05-15T21:23:28.629Z,47.90
2019-05-15T21:25:59.052Z,47.50
2019-05-15T21:28:30.030Z,48.00
2019-05-15T21:30:59.480Z,47.30
2019-05-15T21:33:29.118Z,47.20
2019-05-15T21:35:58.489Z,48.00
2019-05-15T21:38:28.388Z,48.10
2019-05-15T21:40:58.607Z,48.30
2019-05-15T21:43:28.378Z,48.00
2019-05-15T21:45:59.071Z,48.30
2019-05-15T21:48:28.885Z,48.80
2019-05-15T21:50:59.450Z,48.50
2019-05-15T21:53:28.898Z,49.10
2019-05-15T21:55:58.856Z,49.30
2019-05-15T21:58:28.546Z,49.20
2019-05-15T22:00:58.315Z,49.20
2019-05-15T22:03:28.725Z,49.70
2019-05-15T22:05:58.639Z,49.90
2019-05-15T22:08:28.215Z,50.10
2019-05-15T22:10:57.474Z,49.90
2019-05-15T22:13:31.196Z,50.20
2019-05-15T22:15:59.351Z,49.90
2019-05-15T22:18:29.038Z,50.70
2019-05-15T22:20:58.649Z,50.30
2019-05-15T22:23:28.157Z,50.90
2019-05-15T22:25:58.375Z,50.70
2019-05-15T22:28:28.348Z,50.80
2019-05-15T22:30:58.383Z,50.70
2019-05-15T22:33:28.446Z,50.60
2019-05-15T22:35:59.562Z,50.80
2019-05-15T22:38:29.491Z,51.30
2019-05-15T22:40:59.107Z,51.20
2019-05-15T22:43:28.885Z,51.30
2019-05-15T22:45:58.813Z,51.90
2019-05-15T22:48:28.823Z,51.60
2019-05-15T22:50:58.423Z,51.00
2019-05-15T22:53:28.934Z,51.50
2019-05-15T22:55:58.881Z,51.20
2019-05-15T22:58:28.302Z,51.30
2019-05-15T23:00:59.745Z,51.70
2019-05-15T23:03:30.543Z,51.60
2019-05-15T23:05:59.803Z,51.70
2019-05-15T23:08:29.260Z,52.60
2019-05-15T23:10:58.899Z,51.90
2019-05-15T23:13:28.777Z,52.60
2019-05-15T23:15:59.043Z,53.30
2019-05-15T23:18:28.298Z,53.40
2019-05-15T23:20:59.470Z,53.40
2019-05-15T23:23:28.696Z,53.80
2019-05-15T23:25:58.279Z,54.10
2019-05-15T23:28:28.128Z,54.10
2019-05-15T23:30:58.665Z,54.20
2019-05-15T23:33:28.339Z,54.30
2019-05-15T23:35:58.697Z,54.30
2019-05-15T23:38:29.083Z,55.20
2019-05-15T23:40:58.902Z,54.60
2019-05-15T23:43:29.386Z,54.50
2019-05-15T23:45:59.036Z,54.50
2019-05-15T23:48:28.538Z,55.00
2019-05-15T23:50:59.209Z,55.00
2019-05-15T23:53:28.906Z,54.80
2019-05-15T23:55:59.426Z,54.40
2019-05-15T23:58:29.331Z,54.70
